sensor_id;sensor_type;location;lat;lon;timestamp;P1;durP1;ratioP1;P2;durP2;ratioP2
74926;SDS011;63488;48.092;-1.640;2023-04-25T00:02:19;8.73;;;2.35;;
74926;SDS011;63488;48.092;-1.640;2023-04-25T00:04:44;8.95;;;2.53;;
74926;SDS011;63488;48.092;-1.640;2023-04-25T00:07:10;5.90;;;2.10;;
74926;SDS011;63488;48.092;-1.640;2023-04-25T00:09:36;8.02;;;2.60;;
74926;SDS011;63488;48.092;-1.640;2023-04-25T00:12:01;9.77;;;2.53;;
74926;SDS011;63488;48.092;-1.640;2023-04-25T00:14:27;6.72;;;2.40;;
74926;SDS011;63488;48.092;-1.640;2023-04-25T00:16:52;7.22;;;2.28;;
74926;SDS011;63488;48.092;-1.640;2023-04-25T00:19:19;8.60;;;2.70;;
74926;SDS011;63488;48.092;-1.640;2023-04-25T00:21:44;8.25;;;2.25;;
74926;SDS011;63488;48.092;-1.640;2023-04-25T00:24:11;7.43;;;2.20;;
74926;SDS011;63488;48.092;-1.640;2023-04-25T00:26:36;10.07;;;2.80;;
74926;SDS011;63488;48.092;-1.640;2023-04-25T00:29:02;13.10;;;2.53;;
74926;SDS011;63488;48.092;-1.640;2023-04-25T00:31:27;10.93;;;2.30;;
74926;SDS011;63488;48.092;-1.640;2023-04-25T00:33:54;8.32;;;2.20;;
74926;SDS011;63488;48.092;-1.640;2023-04-25T00:36:19;9.23;;;2.42;;
74926;SDS011;63488;48.092;-1.640;2023-04-25T00:38:44;8.18;;;2.55;;
74926;SDS011;63488;48.092;-1.640;2023-04-25T00:41:10;7.28;;;2.58;;
74926;SDS011;63488;48.092;-1.640;2023-04-25T00:43:35;8.00;;;2.17;;
74926;SDS011;63488;48.092;-1.640;2023-04-25T00:46:01;8.45;;;2.00;;
74926;SDS011;63488;48.092;-1.640;2023-04-25T00:48:26;7.80;;;2.17;;
74926;SDS011;63488;48.092;-1.640;2023-04-25T00:50:53;6.57;;;2.30;;
74926;SDS011;63488;48.092;-1.640;2023-04-25T00:53:19;5.82;;;2.17;;
74926;SDS011;63488;48.092;-1.640;2023-04-25T00:55:45;5.80;;;2.53;;
74926;SDS011;63488;48.092;-1.640;2023-04-25T00:58:10;11.88;;;2.10;;
74926;SDS011;63488;48.092;-1.640;2023-04-25T01:00:36;7.20;;;2.20;;
74926;SDS011;63488;48.092;-1.640;2023-04-25T01:03:01;8.57;;;2.13;;
74926;SDS011;63488;48.092;-1.640;2023-04-25T01:05:27;8.18;;;2.38;;
74926;SDS011;63488;48.092;-1.640;2023-04-25T01:07:52;6.95;;;2.30;;
74926;SDS011;63488;48.092;-1.640;2023-04-25T01:10:18;7.63;;;2.53;;
74926;SDS011;63488;48.092;-1.640;2023-04-25T01:12:43;7.82;;;2.28;;
74926;SDS011;63488;48.092;-1.640;2023-04-25T01:15:09;8.68;;;2.60;;
74926;SDS011;63488;48.092;-1.640;2023-04-25T01:17:34;5.85;;;2.00;;
74926;SDS011;63488;48.092;-1.640;2023-04-25T01:20:02;5.03;;;1.60;;
74926;SDS011;63488;48.092;-1.640;2023-04-25T01:22:28;9.25;;;2.40;;
74926;SDS011;63488;48.092;-1.640;2023-04-25T01:24:54;6.75;;;2.00;;
74926;SDS011;63488;48.092;-1.640;2023-04-25T01:27:19;7.85;;;2.30;;
74926;SDS011;63488;48.092;-1.640;2023-04-25T01:29:45;7.30;;;2.40;;
74926;SDS011;63488;48.092;-1.640;2023-04-25T01:32:11;6.75;;;2.08;;
74926;SDS011;63488;48.092;-1.640;2023-04-25T01:34:36;5.55;;;2.33;;
74926;SDS011;63488;48.092;-1.640;2023-04-25T01:37:02;9.73;;;2.42;;
74926;SDS011;63488;48.092;-1.640;2023-04-25T01:39:27;7.28;;;2.70;;
74926;SDS011;63488;48.092;-1.640;2023-04-25T01:41:52;7.60;;;2.17;;
74926;SDS011;63488;48.092;-1.640;2023-04-25T01:44:18;6.45;;;2.38;;
74926;SDS011;63488;48.092;-1.640;2023-04-25T01:46:43;5.15;;;2.13;;
74926;SDS011;63488;48.092;-1.640;2023-04-25T01:49:08;8.43;;;2.17;;
74926;SDS011;63488;48.092;-1.640;2023-04-25T01:51:34;4.75;;;2.03;;
74926;SDS011;63488;48.092;-1.640;2023-04-25T01:54:00;4.75;;;2.53;;
74926;SDS011;63488;48.092;-1.640;2023-04-25T01:56:29;9.38;;;2.25;;
74926;SDS011;63488;48.092;-1.640;2023-04-25T01:58:54;8.85;;;2.75;;
74926;SDS011;63488;48.092;-1.640;2023-04-25T02:01:20;9.05;;;2.10;;
74926;SDS011;63488;48.092;-1.640;2023-04-25T02:03:45;9.95;;;2.40;;
74926;SDS011;63488;48.092;-1.640;2023-04-25T02:06:10;7.13;;;1.88;;
74926;SDS011;63488;48.092;-1.640;2023-04-25T02:08:36;6.97;;;2.25;;
74926;SDS011;63488;48.092;-1.640;2023-04-25T02:11:02;5.82;;;2.00;;
74926;SDS011;63488;48.092;-1.640;2023-04-25T02:13:28;8.23;;;2.08;;
74926;SDS011;63488;48.092;-1.640;2023-04-25T02:15:53;5.40;;;2.33;;
74926;SDS011;63488;48.092;-1.640;2023-04-25T02:18:19;5.72;;;2.05;;
74926;SDS011;63488;48.092;-1.640;2023-04-25T02:20:46;6.57;;;2.38;;
74926;SDS011;63488;48.092;-1.640;2023-04-25T02:23:11;6.68;;;2.17;;
74926;SDS011;63488;48.092;-1.640;2023-04-25T02:25:36;8.70;;;2.30;;
74926;SDS011;63488;48.092;-1.640;2023-04-25T02:28:02;8.68;;;2.22;;
74926;SDS011;63488;48.092;-1.640;2023-04-25T02:30:27;5.88;;;2.35;;
74926;SDS011;63488;48.092;-1.640;2023-04-25T02:32:52;10.38;;;2.53;;
74926;SDS011;63488;48.092;-1.640;2023-04-25T02:35:18;6.70;;;1.88;;
74926;SDS011;63488;48.092;-1.640;2023-04-25T02:37:43;8.80;;;2.10;;
74926;SDS011;63488;48.092;-1.640;2023-04-25T02:40:09;8.98;;;2.30;;
74926;SDS011;63488;48.092;-1.640;2023-04-25T02:42:34;7.15;;;2.28;;
74926;SDS011;63488;48.092;-1.640;2023-04-25T02:45:00;8.75;;;2.38;;
74926;SDS011;63488;48.092;-1.640;2023-04-25T02:47:25;8.50;;;2.20;;
74926;SDS011;63488;48.092;-1.640;2023-04-25T02:49:51;6.07;;;2.13;;
74926;SDS011;63488;48.092;-1.640;2023-04-25T02:52:16;8.80;;;2.28;;
74926;SDS011;63488;48.092;-1.640;2023-04-25T02:54:41;8.35;;;2.47;;
74926;SDS011;63488;48.092;-1.640;2023-04-25T02:57:07;10.48;;;3.47;;
74926;SDS011;63488;48.092;-1.640;2023-04-25T02:59:32;6.65;;;2.00;;
74926;SDS011;63488;48.092;-1.640;2023-04-25T03:01:58;8.57;;;2.33;;
74926;SDS011;63488;48.092;-1.640;2023-04-25T03:04:23;6.80;;;2.25;;
74926;SDS011;63488;48.092;-1.640;2023-04-25T03:06:49;7.80;;;2.10;;
74926;SDS011;63488;48.092;-1.640;2023-04-25T03:09:14;6.97;;;2.05;;
74926;SDS011;63488;48.092;-1.640;2023-04-25T03:11:40;7.57;;;2.30;;
74926;SDS011;63488;48.092;-1.640;2023-04-25T03:14:05;6.28;;;1.80;;
74926;SDS011;63488;48.092;-1.640;2023-04-25T03:16:30;10.75;;;2.05;;
74926;SDS011;63488;48.092;-1.640;2023-04-25T03:18:56;4.47;;;2.08;;
74926;SDS011;63488;48.092;-1.640;2023-04-25T03:21:22;7.00;;;2.22;;
74926;SDS011;63488;48.092;-1.640;2023-04-25T03:23:47;8.20;;;2.08;;
74926;SDS011;63488;48.092;-1.640;2023-04-25T03:26:12;8.25;;;2.10;;
74926;SDS011;63488;48.092;-1.640;2023-04-25T03:28:38;6.50;;;2.13;;
74926;SDS011;63488;48.092;-1.640;2023-04-25T03:31:04;7.32;;;2.20;;
74926;SDS011;63488;48.092;-1.640;2023-04-25T03:33:30;7.57;;;1.90;;
74926;SDS011;63488;48.092;-1.640;2023-04-25T03:35:55;9.07;;;2.10;;
74926;SDS011;63488;48.092;-1.640;2023-04-25T03:38:20;5.85;;;2.25;;
74926;SDS011;63488;48.092;-1.640;2023-04-25T03:40:46;7.07;;;2.13;;
74926;SDS011;63488;48.092;-1.640;2023-04-25T03:43:11;11.35;;;2.65;;
74926;SDS011;63488;48.092;-1.640;2023-04-25T03:45:36;8.90;;;2.50;;
74926;SDS011;63488;48.092;-1.640;2023-04-25T03:48:02;6.55;;;2.05;;
74926;SDS011;63488;48.092;-1.640;2023-04-25T03:50:27;7.68;;;2.22;;
74926;SDS011;63488;48.092;-1.640;2023-04-25T03:52:52;6.68;;;2.30;;
74926;SDS011;63488;48.092;-1.640;2023-04-25T03:55:18;6.78;;;2.10;;
74926;SDS011;63488;48.092;-1.640;2023-04-25T03:57:43;8.98;;;2.35;;
74926;SDS011;63488;48.092;-1.640;2023-04-25T04:00:08;7.70;;;2.20;;
74926;SDS011;63488;48.092;-1.640;2023-04-25T04:02:34;6.85;;;2.25;;
74926;SDS011;63488;48.092;-1.640;2023-04-25T04:05:01;6.07;;;2.22;;
74926;SDS011;63488;48.092;-1.640;2023-04-25T04:07:27;9.95;;;2.08;;
74926;SDS011;63488;48.092;-1.640;2023-04-25T04:09:52;7.03;;;2.10;;
74926;SDS011;63488;48.092;-1.640;2023-04-25T04:12:17;5.80;;;2.33;;
74926;SDS011;63488;48.092;-1.640;2023-04-25T04:14:43;5.50;;;2.20;;
74926;SDS011;63488;48.092;-1.640;2023-04-25T04:17:08;6.90;;;2.55;;
74926;SDS011;63488;48.092;-1.640;2023-04-25T04:19:33;6.45;;;2.50;;
74926;SDS011;63488;48.092;-1.640;2023-04-25T04:21:58;11.73;;;2.78;;
74926;SDS011;63488;48.092;-1.640;2023-04-25T04:24:24;6.22;;;2.40;;
74926;SDS011;63488;48.092;-1.640;2023-04-25T04:26:49;7.90;;;2.58;;
74926;SDS011;63488;48.092;-1.640;2023-04-25T04:29:15;7.40;;;2.40;;
74926;SDS011;63488;48.092;-1.640;2023-04-25T04:31:47;7.43;;;2.60;;
74926;SDS011;63488;48.092;-1.640;2023-04-25T04:34:12;7.72;;;2.60;;
74926;SDS011;63488;48.092;-1.640;2023-04-25T04:36:37;10.82;;;2.53;;
74926;SDS011;63488;48.092;-1.640;2023-04-25T04:39:05;9.48;;;2.60;;
74926;SDS011;63488;48.092;-1.640;2023-04-25T04:41:31;9.50;;;2.97;;
74926;SDS011;63488;48.092;-1.640;2023-04-25T04:43:56;9.15;;;2.50;;
74926;SDS011;63488;48.092;-1.640;2023-04-25T04:46:21;8.38;;;2.92;;
74926;SDS011;63488;48.092;-1.640;2023-04-25T04:48:47;7.80;;;2.58;;
74926;SDS011;63488;48.092;-1.640;2023-04-25T04:51:12;6.38;;;2.20;;
74926;SDS011;63488;48.092;-1.640;2023-04-25T04:53:37;7.95;;;2.60;;
74926;SDS011;63488;48.092;-1.640;2023-04-25T04:56:03;7.93;;;2.83;;
74926;SDS011;63488;48.092;-1.640;2023-04-25T04:58:28;8.10;;;2.30;;
74926;SDS011;63488;48.092;-1.640;2023-04-25T05:00:54;7.75;;;2.30;;
74926;SDS011;63488;48.092;-1.640;2023-04-25T05:03:20;6.70;;;2.35;;
74926;SDS011;63488;48.092;-1.640;2023-04-25T05:05:45;5.22;;;2.20;;
74926;SDS011;63488;48.092;-1.640;2023-04-25T05:08:11;5.38;;;2.50;;
74926;SDS011;63488;48.092;-1.640;2023-04-25T05:10:36;7.88;;;2.42;;
74926;SDS011;63488;48.092;-1.640;2023-04-25T05:13:01;9.48;;;2.63;;
74926;SDS011;63488;48.092;-1.640;2023-04-25T05:15:27;6.63;;;2.95;;
74926;SDS011;63488;48.092;-1.640;2023-04-25T05:17:52;8.20;;;2.50;;
74926;SDS011;63488;48.092;-1.640;2023-04-25T05:20:18;5.85;;;2.75;;
74926;SDS011;63488;48.092;-1.640;2023-04-25T05:22:46;5.47;;;2.45;;
74926;SDS011;63488;48.092;-1.640;2023-04-25T05:25:11;7.20;;;2.42;;
74926;SDS011;63488;48.092;-1.640;2023-04-25T05:27:36;5.85;;;2.33;;
74926;SDS011;63488;48.092;-1.640;2023-04-25T05:30:02;7.30;;;2.63;;
74926;SDS011;63488;48.092;-1.640;2023-04-25T05:32:27;5.90;;;3.13;;
74926;SDS011;63488;48.092;-1.640;2023-04-25T05:34:52;7.68;;;2.55;;
74926;SDS011;63488;48.092;-1.640;2023-04-25T05:37:18;7.68;;;2.60;;
74926;SDS011;63488;48.092;-1.640;2023-04-25T05:39:43;6.55;;;2.70;;
74926;SDS011;63488;48.092;-1.640;2023-04-25T05:42:09;5.03;;;2.45;;
74926;SDS011;63488;48.092;-1.640;2023-04-25T05:44:34;7.35;;;2.95;;
74926;SDS011;63488;48.092;-1.640;2023-04-25T05:46:59;8.63;;;2.80;;
74926;SDS011;63488;48.092;-1.640;2023-04-25T05:49:25;9.23;;;2.88;;
74926;SDS011;63488;48.092;-1.640;2023-04-25T05:51:50;4.32;;;2.35;;
74926;SDS011;63488;48.092;-1.640;2023-04-25T05:54:15;8.57;;;2.83;;
74926;SDS011;63488;48.092;-1.640;2023-04-25T05:56:41;7.75;;;3.00;;
74926;SDS011;63488;48.092;-1.640;2023-04-25T05:59:06;6.78;;;2.70;;
74926;SDS011;63488;48.092;-1.640;2023-04-25T06:01:31;7.40;;;2.97;;
74926;SDS011;63488;48.092;-1.640;2023-04-25T06:03:57;8.32;;;2.63;;
74926;SDS011;63488;48.092;-1.640;2023-04-25T06:06:22;8.00;;;3.00;;
74926;SDS011;63488;48.092;-1.640;2023-04-25T06:08:47;8.85;;;2.72;;
74926;SDS011;63488;48.092;-1.640;2023-04-25T06:11:12;6.60;;;2.95;;
74926;SDS011;63488;48.092;-1.640;2023-04-25T06:13:38;8.10;;;2.47;;
74926;SDS011;63488;48.092;-1.640;2023-04-25T06:16:03;6.63;;;2.33;;
74926;SDS011;63488;48.092;-1.640;2023-04-25T06:18:29;5.70;;;2.13;;
74926;SDS011;63488;48.092;-1.640;2023-04-25T06:20:55;6.03;;;2.45;;
74926;SDS011;63488;48.092;-1.640;2023-04-25T06:23:20;4.93;;;2.13;;
74926;SDS011;63488;48.092;-1.640;2023-04-25T06:25:45;6.13;;;2.28;;
74926;SDS011;63488;48.092;-1.640;2023-04-25T06:28:11;6.47;;;2.35;;
74926;SDS011;63488;48.092;-1.640;2023-04-25T06:30:36;6.28;;;2.10;;
74926;SDS011;63488;48.092;-1.640;2023-04-25T06:33:01;6.55;;;2.38;;
74926;SDS011;63488;48.092;-1.640;2023-04-25T06:35:27;4.95;;;2.53;;
74926;SDS011;63488;48.092;-1.640;2023-04-25T06:37:52;6.28;;;2.55;;
74926;SDS011;63488;48.092;-1.640;2023-04-25T06:40:17;7.85;;;2.88;;
74926;SDS011;63488;48.092;-1.640;2023-04-25T06:42:43;5.22;;;2.80;;
74926;SDS011;63488;48.092;-1.640;2023-04-25T06:45:08;6.10;;;2.80;;
74926;SDS011;63488;48.092;-1.640;2023-04-25T06:47:34;8.13;;;3.03;;
74926;SDS011;63488;48.092;-1.640;2023-04-25T06:49:59;6.55;;;3.13;;
74926;SDS011;63488;48.092;-1.640;2023-04-25T06:52:24;7.13;;;3.15;;
74926;SDS011;63488;48.092;-1.640;2023-04-25T06:54:50;9.25;;;3.10;;
74926;SDS011;63488;48.092;-1.640;2023-04-25T06:57:15;6.95;;;3.00;;
74926;SDS011;63488;48.092;-1.640;2023-04-25T06:59:40;10.20;;;3.00;;
74926;SDS011;63488;48.092;-1.640;2023-04-25T07:02:06;7.60;;;3.13;;
74926;SDS011;63488;48.092;-1.640;2023-04-25T07:04:31;6.45;;;3.05;;
74926;SDS011;63488;48.092;-1.640;2023-04-25T07:06:57;6.82;;;3.38;;
74926;SDS011;63488;48.092;-1.640;2023-04-25T07:09:22;10.07;;;3.63;;
74926;SDS011;63488;48.092;-1.640;2023-04-25T07:11:47;11.43;;;3.80;;
74926;SDS011;63488;48.092;-1.640;2023-04-25T07:14:13;9.43;;;3.30;;
74926;SDS011;63488;48.092;-1.640;2023-04-25T07:19:44;8.75;;;3.55;;
74926;SDS011;63488;48.092;-1.640;2023-04-25T07:22:10;8.77;;;3.58;;
74926;SDS011;63488;48.092;-1.640;2023-04-25T07:24:35;7.35;;;3.70;;
74926;SDS011;63488;48.092;-1.640;2023-04-25T07:27:01;7.40;;;3.55;;
74926;SDS011;63488;48.092;-1.640;2023-04-25T07:29:27;7.78;;;3.22;;
74926;SDS011;63488;48.092;-1.640;2023-04-25T07:31:52;11.40;;;4.03;;
74926;SDS011;63488;48.092;-1.640;2023-04-25T07:34:18;8.05;;;3.42;;
74926;SDS011;63488;48.092;-1.640;2023-04-25T07:36:44;8.45;;;3.67;;
74926;SDS011;63488;48.092;-1.640;2023-04-25T07:39:10;8.13;;;3.50;;
74926;SDS011;63488;48.092;-1.640;2023-04-25T07:41:35;6.10;;;2.80;;
74926;SDS011;63488;48.092;-1.640;2023-04-25T07:44:01;6.93;;;3.70;;
74926;SDS011;63488;48.092;-1.640;2023-04-25T07:46:26;6.75;;;3.63;;
74926;SDS011;63488;48.092;-1.640;2023-04-25T07:48:51;5.85;;;3.50;;
74926;SDS011;63488;48.092;-1.640;2023-04-25T07:51:17;8.20;;;4.25;;
74926;SDS011;63488;48.092;-1.640;2023-04-25T07:53:44;6.28;;;4.10;;
74926;SDS011;63488;48.092;-1.640;2023-04-25T07:56:10;7.15;;;3.70;;
74926;SDS011;63488;48.092;-1.640;2023-04-25T07:58:35;7.32;;;3.58;;
74926;SDS011;63488;48.092;-1.640;2023-04-25T08:01:01;8.02;;;3.60;;
74926;SDS011;63488;48.092;-1.640;2023-04-25T08:03:26;9.88;;;3.78;;
74926;SDS011;63488;48.092;-1.640;2023-04-25T08:05:51;6.07;;;3.55;;
74926;SDS011;63488;48.092;-1.640;2023-04-25T08:08:17;6.43;;;3.13;;
74926;SDS011;63488;48.092;-1.640;2023-04-25T08:10:42;7.28;;;3.42;;
74926;SDS011;63488;48.092;-1.640;2023-04-25T08:13:07;7.60;;;3.08;;
74926;SDS011;63488;48.092;-1.640;2023-04-25T08:15:33;7.78;;;3.90;;
74926;SDS011;63488;48.092;-1.640;2023-04-25T08:17:58;6.03;;;3.20;;
74926;SDS011;63488;48.092;-1.640;2023-04-25T08:20:24;5.75;;;3.10;;
74926;SDS011;63488;48.092;-1.640;2023-04-25T08:22:50;5.45;;;3.25;;
74926;SDS011;63488;48.092;-1.640;2023-04-25T08:25:15;6.03;;;3.28;;
74926;SDS011;63488;48.092;-1.640;2023-04-25T08:27:42;7.13;;;3.63;;
74926;SDS011;63488;48.092;-1.640;2023-04-25T08:30:09;5.10;;;3.15;;
74926;SDS011;63488;48.092;-1.640;2023-04-25T08:32:34;4.72;;;3.13;;
74926;SDS011;63488;48.092;-1.640;2023-04-25T08:35:03;5.88;;;3.35;;
74926;SDS011;63488;48.092;-1.640;2023-04-25T08:37:28;3.65;;;2.75;;
74926;SDS011;63488;48.092;-1.640;2023-04-25T08:39:53;7.57;;;3.28;;
74926;SDS011;63488;48.092;-1.640;2023-04-25T08:42:19;5.90;;;3.13;;
74926;SDS011;63488;48.092;-1.640;2023-04-25T08:44:46;7.43;;;3.38;;
74926;SDS011;63488;48.092;-1.640;2023-04-25T08:47:13;5.30;;;3.30;;
74926;SDS011;63488;48.092;-1.640;2023-04-25T08:49:38;5.25;;;3.30;;
74926;SDS011;63488;48.092;-1.640;2023-04-25T08:52:05;5.43;;;2.95;;
74926;SDS011;63488;48.092;-1.640;2023-04-25T08:54:31;5.32;;;2.60;;
74926;SDS011;63488;48.092;-1.640;2023-04-25T08:57:00;5.65;;;2.55;;
74926;SDS011;63488;48.092;-1.640;2023-04-25T08:59:26;4.13;;;2.75;;
74926;SDS011;63488;48.092;-1.640;2023-04-25T09:01:52;5.80;;;2.55;;
74926;SDS011;63488;48.092;-1.640;2023-04-25T09:04:17;6.00;;;2.92;;
74926;SDS011;63488;48.092;-1.640;2023-04-25T09:06:43;4.97;;;3.13;;
74926;SDS011;63488;48.092;-1.640;2023-04-25T09:09:08;5.50;;;2.95;;
74926;SDS011;63488;48.092;-1.640;2023-04-25T09:11:35;5.43;;;2.85;;
74926;SDS011;63488;48.092;-1.640;2023-04-25T09:14:20;8.63;;;2.70;;
74926;SDS011;63488;48.092;-1.640;2023-04-25T09:19:24;4.68;;;2.85;;
74926;SDS011;63488;48.092;-1.640;2023-04-25T09:21:50;6.40;;;2.80;;
74926;SDS011;63488;48.092;-1.640;2023-04-25T09:24:16;4.88;;;2.60;;
74926;SDS011;63488;48.092;-1.640;2023-04-25T09:26:41;5.70;;;3.38;;
74926;SDS011;63488;48.092;-1.640;2023-04-25T09:29:07;7.35;;;3.28;;
74926;SDS011;63488;48.092;-1.640;2023-04-25T09:31:34;6.28;;;2.92;;
74926;SDS011;63488;48.092;-1.640;2023-04-25T09:34:00;5.78;;;2.97;;
74926;SDS011;63488;48.092;-1.640;2023-04-25T09:36:29;7.15;;;3.00;;
74926;SDS011;63488;48.092;-1.640;2023-04-25T09:38:54;6.07;;;2.95;;
74926;SDS011;63488;48.092;-1.640;2023-04-25T09:41:23;5.45;;;2.88;;
74926;SDS011;63488;48.092;-1.640;2023-04-25T09:43:49;8.85;;;3.40;;
74926;SDS011;63488;48.092;-1.640;2023-04-25T09:46:14;5.97;;;3.33;;
74926;SDS011;63488;48.092;-1.640;2023-04-25T09:48:40;4.93;;;2.88;;
74926;SDS011;63488;48.092;-1.640;2023-04-25T09:51:13;7.63;;;2.97;;
74926;SDS011;63488;48.092;-1.640;2023-04-25T09:53:42;5.65;;;3.20;;
74926;SDS011;63488;48.092;-1.640;2023-04-25T09:56:09;4.85;;;3.00;;
74926;SDS011;63488;48.092;-1.640;2023-04-25T09:58:35;6.90;;;3.30;;
74926;SDS011;63488;48.092;-1.640;2023-04-25T10:01:02;5.90;;;2.92;;
74926;SDS011;63488;48.092;-1.640;2023-04-25T10:03:31;3.50;;;2.38;;
74926;SDS011;63488;48.092;-1.640;2023-04-25T10:06:00;4.00;;;2.20;;
74926;SDS011;63488;48.092;-1.640;2023-04-25T10:08:31;4.27;;;2.77;;
74926;SDS011;63488;48.092;-1.640;2023-04-25T10:10:59;5.78;;;2.88;;
74926;SDS011;63488;48.092;-1.640;2023-04-25T10:13:24;6.05;;;2.80;;
74926;SDS011;63488;48.092;-1.640;2023-04-25T10:15:50;4.90;;;2.50;;
74926;SDS011;63488;48.092;-1.640;2023-04-25T10:18:17;5.22;;;2.70;;
74926;SDS011;63488;48.092;-1.640;2023-04-25T10:20:44;6.50;;;3.20;;
74926;SDS011;63488;48.092;-1.640;2023-04-25T10:23:11;7.53;;;2.67;;
74926;SDS011;63488;48.092;-1.640;2023-04-25T10:25:38;4.35;;;2.40;;
74926;SDS011;63488;48.092;-1.640;2023-04-25T10:28:03;5.50;;;2.83;;
74926;SDS011;63488;48.092;-1.640;2023-04-25T10:30:29;4.15;;;2.35;;
74926;SDS011;63488;48.092;-1.640;2023-04-25T10:32:55;4.65;;;2.85;;
74926;SDS011;63488;48.092;-1.640;2023-04-25T10:35:27;5.47;;;2.80;;
74926;SDS011;63488;48.092;-1.640;2023-04-25T10:37:56;4.50;;;2.63;;
74926;SDS011;63488;48.092;-1.640;2023-04-25T10:40:25;6.45;;;2.90;;
74926;SDS011;63488;48.092;-1.640;2023-04-25T10:42:54;4.88;;;2.78;;
74926;SDS011;63488;48.092;-1.640;2023-04-25T10:45:20;2.97;;;2.60;;
74926;SDS011;63488;48.092;-1.640;2023-04-25T10:47:46;6.40;;;2.45;;
74926;SDS011;63488;48.092;-1.640;2023-04-25T10:50:11;4.63;;;2.22;;
74926;SDS011;63488;48.092;-1.640;2023-04-25T10:52:39;3.95;;;2.20;;
74926;SDS011;63488;48.092;-1.640;2023-04-25T10:55:07;5.20;;;2.35;;
74926;SDS011;63488;48.092;-1.640;2023-04-25T11:02:52;3.20;;;2.13;;
74926;SDS011;63488;48.092;-1.640;2023-04-25T11:07:50;4.82;;;2.10;;
74926;SDS011;63488;48.092;-1.640;2023-04-25T11:10:17;3.38;;;2.10;;
74926;SDS011;63488;48.092;-1.640;2023-04-25T11:12:42;3.08;;;2.22;;
74926;SDS011;63488;48.092;-1.640;2023-04-25T11:15:08;3.47;;;2.30;;
74926;SDS011;63488;48.092;-1.640;2023-04-25T11:17:33;3.92;;;2.00;;
74926;SDS011;63488;48.092;-1.640;2023-04-25T11:19:59;4.43;;;2.60;;
74926;SDS011;63488;48.092;-1.640;2023-04-25T11:22:26;4.35;;;2.55;;
74926;SDS011;63488;48.092;-1.640;2023-04-25T11:24:51;3.83;;;2.50;;
74926;SDS011;63488;48.092;-1.640;2023-04-25T11:27:16;3.60;;;2.00;;
74926;SDS011;63488;48.092;-1.640;2023-04-25T11:29:42;3.13;;;2.13;;
74926;SDS011;63488;48.092;-1.640;2023-04-25T11:32:07;3.47;;;2.65;;
74926;SDS011;63488;48.092;-1.640;2023-04-25T11:34:33;4.43;;;2.50;;
74926;SDS011;63488;48.092;-1.640;2023-04-25T11:36:59;3.70;;;2.38;;
74926;SDS011;63488;48.092;-1.640;2023-04-25T11:39:26;4.00;;;2.50;;
74926;SDS011;63488;48.092;-1.640;2023-04-25T11:41:53;4.35;;;2.67;;
74926;SDS011;63488;48.092;-1.640;2023-04-25T11:44:19;4.85;;;2.60;;
74926;SDS011;63488;48.092;-1.640;2023-04-25T11:46:44;5.80;;;2.60;;
74926;SDS011;63488;48.092;-1.640;2023-04-25T11:49:10;5.00;;;2.45;;
74926;SDS011;63488;48.092;-1.640;2023-04-25T11:51:39;4.80;;;2.70;;
74926;SDS011;63488;48.092;-1.640;2023-04-25T11:54:05;2.75;;;2.30;;
74926;SDS011;63488;48.092;-1.640;2023-04-25T11:56:31;3.67;;;2.00;;
74926;SDS011;63488;48.092;-1.640;2023-04-25T11:59:00;3.55;;;2.22;;
74926;SDS011;63488;48.092;-1.640;2023-04-25T12:01:29;5.20;;;2.53;;
74926;SDS011;63488;48.092;-1.640;2023-04-25T12:03:55;5.22;;;2.20;;
74926;SDS011;63488;48.092;-1.640;2023-04-25T12:06:20;4.82;;;2.42;;
74926;SDS011;63488;48.092;-1.640;2023-04-25T12:09:01;4.80;;;3.00;;
74926;SDS011;63488;48.092;-1.640;2023-04-25T12:11:29;4.72;;;2.70;;
74926;SDS011;63488;48.092;-1.640;2023-04-25T12:13:55;3.58;;;2.67;;
74926;SDS011;63488;48.092;-1.640;2023-04-25T12:16:20;4.70;;;2.55;;
74926;SDS011;63488;48.092;-1.640;2023-04-25T12:18:45;4.88;;;2.40;;
74926;SDS011;63488;48.092;-1.640;2023-04-25T12:21:10;3.75;;;2.45;;
74926;SDS011;63488;48.092;-1.640;2023-04-25T12:23:38;3.63;;;2.20;;
74926;SDS011;63488;48.092;-1.640;2023-04-25T12:26:03;5.13;;;2.53;;
74926;SDS011;63488;48.092;-1.640;2023-04-25T12:28:29;3.20;;;2.10;;
74926;SDS011;63488;48.092;-1.640;2023-04-25T12:30:59;4.10;;;1.80;;
74926;SDS011;63488;48.092;-1.640;2023-04-25T12:33:28;4.93;;;2.42;;
74926;SDS011;63488;48.092;-1.640;2023-04-25T12:35:54;6.60;;;2.40;;
74926;SDS011;63488;48.092;-1.640;2023-04-25T12:38:20;2.83;;;2.10;;
74926;SDS011;63488;48.092;-1.640;2023-04-25T12:40:45;6.28;;;2.30;;
74926;SDS011;63488;48.092;-1.640;2023-04-25T12:43:11;4.18;;;2.67;;
74926;SDS011;63488;48.092;-1.640;2023-04-25T12:45:36;5.97;;;2.47;;
74926;SDS011;63488;48.092;-1.640;2023-04-25T12:48:02;3.97;;;2.75;;
74926;SDS011;63488;48.092;-1.640;2023-04-25T12:50:27;4.15;;;2.25;;
74926;SDS011;63488;48.092;-1.640;2023-04-25T12:52:52;3.67;;;2.13;;
74926;SDS011;63488;48.092;-1.640;2023-04-25T12:55:18;3.80;;;2.65;;
74926;SDS011;63488;48.092;-1.640;2023-04-25T12:57:43;4.45;;;3.08;;
74926;SDS011;63488;48.092;-1.640;2023-04-25T13:00:08;4.43;;;2.60;;
74926;SDS011;63488;48.092;-1.640;2023-04-25T13:02:35;5.25;;;2.95;;
74926;SDS011;63488;48.092;-1.640;2023-04-25T13:05:00;5.38;;;3.08;;
74926;SDS011;63488;48.092;-1.640;2023-04-25T13:07:25;4.65;;;2.50;;
74926;SDS011;63488;48.092;-1.640;2023-04-25T13:09:51;3.53;;;2.33;;
74926;SDS011;63488;48.092;-1.640;2023-04-25T13:12:16;5.70;;;3.13;;
74926;SDS011;63488;48.092;-1.640;2023-04-25T13:14:41;3.80;;;2.80;;
74926;SDS011;63488;48.092;-1.640;2023-04-25T13:17:07;4.45;;;2.83;;
74926;SDS011;63488;48.092;-1.640;2023-04-25T13:19:32;3.95;;;2.35;;
74926;SDS011;63488;48.092;-1.640;2023-04-25T13:21:57;4.93;;;2.83;;
74926;SDS011;63488;48.092;-1.640;2023-04-25T13:24:23;4.25;;;2.95;;
74926;SDS011;63488;48.092;-1.640;2023-04-25T13:26:49;3.55;;;2.50;;
74926;SDS011;63488;48.092;-1.640;2023-04-25T13:29:14;4.65;;;2.80;;
74926;SDS011;63488;48.092;-1.640;2023-04-25T13:31:40;6.82;;;3.25;;
74926;SDS011;63488;48.092;-1.640;2023-04-25T13:34:05;5.70;;;2.40;;
74926;SDS011;63488;48.092;-1.640;2023-04-25T13:36:31;4.38;;;2.60;;
74926;SDS011;63488;48.092;-1.640;2023-04-25T13:38:56;4.07;;;2.63;;
74926;SDS011;63488;48.092;-1.640;2023-04-25T13:41:22;3.80;;;2.40;;
74926;SDS011;63488;48.092;-1.640;2023-04-25T13:43:47;4.00;;;2.20;;
74926;SDS011;63488;48.092;-1.640;2023-04-25T13:46:12;3.22;;;2.20;;
74926;SDS011;63488;48.092;-1.640;2023-04-25T13:48:38;4.47;;;2.30;;
74926;SDS011;63488;48.092;-1.640;2023-04-25T13:51:04;3.10;;;2.40;;
74926;SDS011;63488;48.092;-1.640;2023-04-25T13:53:29;4.68;;;3.10;;
74926;SDS011;63488;48.092;-1.640;2023-04-25T13:55:54;4.50;;;2.67;;
74926;SDS011;63488;48.092;-1.640;2023-04-25T13:58:20;6.90;;;2.80;;
74926;SDS011;63488;48.092;-1.640;2023-04-25T14:00:45;5.05;;;2.70;;
74926;SDS011;63488;48.092;-1.640;2023-04-25T14:03:11;3.45;;;2.40;;
74926;SDS011;63488;48.092;-1.640;2023-04-25T14:05:37;3.92;;;2.30;;
74926;SDS011;63488;48.092;-1.640;2023-04-25T14:08:06;3.13;;;2.08;;
74926;SDS011;63488;48.092;-1.640;2023-04-25T14:10:32;4.38;;;2.30;;
74926;SDS011;63488;48.092;-1.640;2023-04-25T14:12:57;3.83;;;2.60;;
74926;SDS011;63488;48.092;-1.640;2023-04-25T14:15:22;5.28;;;2.55;;
74926;SDS011;63488;48.092;-1.640;2023-04-25T14:17:49;4.25;;;2.55;;
74926;SDS011;63488;48.092;-1.640;2023-04-25T14:20:14;6.63;;;3.20;;
74926;SDS011;63488;48.092;-1.640;2023-04-25T14:22:40;4.05;;;2.25;;
74926;SDS011;63488;48.092;-1.640;2023-04-25T14:25:08;5.10;;;2.30;;
74926;SDS011;63488;48.092;-1.640;2023-04-25T14:27:34;4.30;;;2.45;;
74926;SDS011;63488;48.092;-1.640;2023-04-25T14:29:59;3.55;;;2.42;;
74926;SDS011;63488;48.092;-1.640;2023-04-25T14:32:25;4.45;;;2.65;;
74926;SDS011;63488;48.092;-1.640;2023-04-25T14:34:50;4.10;;;2.40;;
74926;SDS011;63488;48.092;-1.640;2023-04-25T14:37:16;3.28;;;2.17;;
74926;SDS011;63488;48.092;-1.640;2023-04-25T14:39:41;3.33;;;2.33;;